createdAt,value
2018-06-04T00:01:22.765Z,68.33
2018-06-04T00:06:15.686Z,68.31
2018-06-04T00:11:08.570Z,68.40
2018-06-04T00:16:01.434Z,67.54
2018-06-04T00:20:54.383Z,68.63
2018-06-04T00:25:47.313Z,68.91
2018-06-04T00:30:40.229Z,68.97
2018-06-04T00:35:33.176Z,68.75
2018-06-04T00:40:26.065Z,69.31
2018-06-04T00:45:18.924Z,69.67
2018-06-04T00:50:11.876Z,69.04
2018-06-04T00:55:04.869Z,69.88
2018-06-04T00:59:57.790Z,69.19
2018-06-04T01:04:50.687Z,69.54
2018-06-04T01:09:43.547Z,69.71
2018-06-04T01:14:36.500Z,69.78
2018-06-04T01:19:29.473Z,70.35
2018-06-04T01:24:22.346Z,69.99
2018-06-04T01:29:15.247Z,70.48
2018-06-04T01:34:08.137Z,70.18
2018-06-04T01:39:00.999Z,70.95
2018-06-04T01:43:53.922Z,71.07
2018-06-04T01:48:46.858Z,70.11
2018-06-04T01:53:40.252Z,70.33
2018-06-04T01:58:33.160Z,70.43
2018-06-04T02:03:26.012Z,70.44
2018-06-04T02:08:18.965Z,71.29
2018-06-04T02:13:11.905Z,71.08
2018-06-04T02:18:04.835Z,70.72
2018-06-04T02:22:57.746Z,71.32
2018-06-04T02:27:50.598Z,71.42
2018-06-04T02:32:43.474Z,71.74
2018-06-04T02:37:36.423Z,71.88
2018-06-04T02:42:29.310Z,71.33
2018-06-04T02:47:22.252Z,71.60
2018-06-04T02:52:15.171Z,71.69
2018-06-04T02:57:07.997Z,72.12
2018-06-04T03:02:01.005Z,72.27
2018-06-04T03:06:53.919Z,72.60
2018-06-04T03:11:46.932Z,71.86
2018-06-04T03:16:39.833Z,72.67
2018-06-04T03:21:32.702Z,72.34
2018-06-04T03:26:25.547Z,72.77
2018-06-04T03:31:18.534Z,72.53
2018-06-04T03:36:11.406Z,72.73
2018-06-04T03:41:04.274Z,72.87
2018-06-04T03:45:57.189Z,72.72
2018-06-04T03:50:50.094Z,73.32
2018-06-04T03:55:42.993Z,73.31
2018-06-04T04:00:35.966Z,72.77
2018-06-04T04:05:28.954Z,73.51
2018-06-04T04:10:21.996Z,73.21
2018-06-04T04:15:14.875Z,73.97
2018-06-04T04:20:07.721Z,73.94
2018-06-04T04:25:00.552Z,73.75
2018-06-04T04:29:53.493Z,74.13
2018-06-04T04:34:46.434Z,73.74
2018-06-04T04:39:39.375Z,73.82
2018-06-04T04:44:32.302Z,74.34
2018-06-04T04:49:25.240Z,74.45
2018-06-04T04:54:18.329Z,74.98
2018-06-04T04:59:11.257Z,74.78
2018-06-04T05:04:04.224Z,75.53
2018-06-04T05:08:57.230Z,75.37
2018-06-04T05:13:50.019Z,75.58
2018-06-04T05:18:42.825Z,75.81
2018-06-04T05:23:35.794Z,75.88
2018-06-04T05:28:28.582Z,75.41
2018-06-04T05:33:21.431Z,75.97
2018-06-04T05:38:14.282Z,75.35
2018-06-04T05:43:07.202Z,75.64
2018-06-04T05:48:00.015Z,75.27
2018-06-04T05:52:52.978Z,75.56
2018-06-04T05:57:45.969Z,75.31
2018-06-04T06:02:38.995Z,74.24
2018-06-04T06:07:31.951Z,73.66
2018-06-04T06:12:25.049Z,73.80
2018-06-04T06:17:17.937Z,73.10
2018-06-04T06:22:10.874Z,73.31
2018-06-04T06:27:03.730Z,73.24
2018-06-04T06:31:56.660Z,72.47
2018-06-04T06:36:49.610Z,72.58
2018-06-04T06:41:42.575Z,71.78
2018-06-04T06:46:35.475Z,71.98
2018-06-04T06:51:28.485Z,71.66
2018-06-04T06:56:21.347Z,70.82
2018-06-04T07:01:14.307Z,70.24
2018-06-04T07:06:07.185Z,69.88
2018-06-04T07:11:00.051Z,68.84
2018-06-04T07:15:52.925Z,68.34
2018-06-04T07:20:45.886Z,67.53
2018-06-04T07:25:38.701Z,64.93
2018-06-04T07:30:31.666Z,61.49
2018-06-04T07:35:24.529Z,58.87
2018-06-04T07:40:17.531Z,55.99
2018-06-04T07:45:10.515Z,53.81
2018-06-04T07:50:03.481Z,52.39
2018-06-04T07:54:56.382Z,50.23
2018-06-04T07:59:49.297Z,48.40
2018-06-04T08:04:42.205Z,47.62
2018-06-04T08:09:35.152Z,47.91
2018-06-04T08:14:27.994Z,47.36
2018-06-04T08:19:20.914Z,47.47
2018-06-04T08:24:13.803Z,48.74
2018-06-04T08:29:06.766Z,49.31
2018-06-04T08:33:59.684Z,49.13
2018-06-04T08:38:52.571Z,51.43
2018-06-04T08:43:45.474Z,50.47
2018-06-04T08:48:38.484Z,50.39
2018-06-04T08:53:31.382Z,50.56
2018-06-04T08:58:24.368Z,49.94
2018-06-04T09:03:17.513Z,50.06
2018-06-04T09:08:10.612Z,50.77
2018-06-04T09:13:03.744Z,50.07
2018-06-04T09:17:56.811Z,50.73
2018-06-04T09:22:49.680Z,51.95
2018-06-04T09:27:42.646Z,50.92
2018-06-04T09:32:35.573Z,50.09
2018-06-04T09:37:28.491Z,50.66
2018-06-04T09:42:21.441Z,49.43
2018-06-04T09:47:14.505Z,49.72
2018-06-04T09:52:07.413Z,50.21
2018-06-04T09:57:00.249Z,50.19
2018-06-04T10:01:53.155Z,51.22
2018-06-04T10:06:46.124Z,50.64
2018-06-04T10:11:39.046Z,50.74
2018-06-04T10:16:32.030Z,47.93
2018-06-04T10:21:25.003Z,48.54
2018-06-04T10:26:18.351Z,46.77
2018-06-04T10:31:11.300Z,47.38
2018-06-04T10:36:04.238Z,48.86
2018-06-04T10:40:57.166Z,48.62
2018-06-04T10:45:50.042Z,48.73
2018-06-04T10:50:42.931Z,48.80
2018-06-04T10:55:35.846Z,49.40
2018-06-04T11:00:28.716Z,49.05
2018-06-04T11:05:21.660Z,47.52
2018-06-04T11:10:14.583Z,47.38
2018-06-04T11:15:07.557Z,47.72
2018-06-04T11:20:00.529Z,47.31
2018-06-04T11:24:53.534Z,47.23
2018-06-04T11:29:46.543Z,48.31
2018-06-04T11:34:39.511Z,48.21
2018-06-04T11:39:32.441Z,49.09
2018-06-04T11:44:25.357Z,48.97
2018-06-04T11:49:18.342Z,47.80
2018-06-04T11:54:11.396Z,48.85
2018-06-04T11:59:04.240Z,48.14
2018-06-04T12:03:57.146Z,48.30
2018-06-04T12:08:49.982Z,48.29
2018-06-04T12:13:42.872Z,47.73
2018-06-04T12:18:35.749Z,47.47
2018-06-04T12:23:28.667Z,46.56
2018-06-04T12:28:21.655Z,47.47
2018-06-04T12:33:14.500Z,47.57
2018-06-04T12:38:07.508Z,46.65
2018-06-04T12:43:01.160Z,47.26
2018-06-04T12:47:54.157Z,47.59
2018-06-04T12:52:47.018Z,46.76
2018-06-04T12:57:40.020Z,46.11
2018-06-04T13:02:33.013Z,46.33
2018-06-04T13:07:25.913Z,46.09
2018-06-04T13:12:18.896Z,44.88
2018-06-04T13:17:11.783Z,45.13
2018-06-04T13:22:04.739Z,44.58
2018-06-04T13:26:57.637Z,44.46
2018-06-04T13:31:50.772Z,44.39
2018-06-04T13:36:43.754Z,44.63
2018-06-04T13:41:36.758Z,43.88
2018-06-04T13:46:29.695Z,44.64
2018-06-04T13:51:22.620Z,44.33
2018-06-04T13:56:15.622Z,44.23
2018-06-04T14:01:08.640Z,43.69
2018-06-04T14:06:01.554Z,44.60
2018-06-04T14:10:54.487Z,44.16
2018-06-04T14:15:47.378Z,43.70
2018-06-04T14:20:40.289Z,43.56
2018-06-04T14:25:33.252Z,44.36
2018-06-04T14:30:26.487Z,43.40
2018-06-04T14:35:19.340Z,44.06
2018-06-04T14:40:12.234Z,43.79
2018-06-04T14:45:05.143Z,42.86
2018-06-04T14:49:58.176Z,42.27
2018-06-04T14:54:50.965Z,43.01
2018-06-04T14:59:43.826Z,42.69
2018-06-04T15:04:36.698Z,42.18
2018-06-04T15:09:29.609Z,42.84
2018-06-04T15:14:22.505Z,42.23
2018-06-04T15:19:15.391Z,41.85
2018-06-04T15:24:08.355Z,41.65
2018-06-04T15:29:01.280Z,42.04
2018-06-04T15:33:54.257Z,42.39
2018-06-04T15:38:47.037Z,42.72
2018-06-04T15:43:39.939Z,42.80
2018-06-04T15:48:32.765Z,43.03
2018-06-04T15:53:25.661Z,43.38
2018-06-04T15:58:18.777Z,43.23
2018-06-04T16:03:11.602Z,43.20
2018-06-04T16:08:04.526Z,43.13
2018-06-04T16:12:57.450Z,43.35
2018-06-04T16:17:50.378Z,42.80
2018-06-04T16:22:43.269Z,43.48
2018-06-04T16:27:36.165Z,42.52
2018-06-04T16:32:29.055Z,43.62
2018-06-04T16:37:22.071Z,43.06
2018-06-04T16:42:14.932Z,44.06
2018-06-04T16:47:07.848Z,43.52
2018-06-04T16:52:00.696Z,43.59
2018-06-04T16:56:53.637Z,43.46
2018-06-04T17:01:46.575Z,43.73
2018-06-04T17:06:39.725Z,43.01
2018-06-04T17:11:32.593Z,43.19
2018-06-04T17:16:25.510Z,43.09
2018-06-04T17:21:18.345Z,43.77
2018-06-04T17:26:11.342Z,42.49
2018-06-04T17:31:04.172Z,42.74
2018-06-04T17:35:57.025Z,43.28
2018-06-04T17:40:50.022Z,42.68
2018-06-04T17:45:43.013Z,43.11
2018-06-04T17:50:35.879Z,43.11
2018-06-04T17:55:28.937Z,42.34
2018-06-04T18:00:21.853Z,42.19
2018-06-04T18:05:15.085Z,43.37
2018-06-04T18:10:08.130Z,43.50
2018-06-04T18:15:01.115Z,43.71
2018-06-04T18:19:54.049Z,43.74
2018-06-04T18:24:47.023Z,43.83
2018-06-04T18:29:39.956Z,43.41
2018-06-04T18:34:32.886Z,44.32
2018-06-04T18:39:25.826Z,44.33
2018-06-04T18:44:18.738Z,44.39
2018-06-04T18:49:11.680Z,45.09
2018-06-04T18:54:04.735Z,44.79
2018-06-04T18:58:57.648Z,44.92
2018-06-04T19:03:50.617Z,45.79
2018-06-04T19:08:43.568Z,45.86
2018-06-04T19:13:36.432Z,45.47
2018-06-04T19:18:45.768Z,45.75
2018-06-04T19:23:38.874Z,46.85
2018-06-04T19:28:32.426Z,47.34
2018-06-04T19:33:25.372Z,47.55
2018-06-04T19:38:18.286Z,47.88
2018-06-04T19:43:11.212Z,48.10
2018-06-04T19:48:04.891Z,47.64
2018-06-04T19:52:57.752Z,47.99
2018-06-04T19:57:50.646Z,49.05
2018-06-04T20:02:43.577Z,48.64
2018-06-04T20:07:36.555Z,49.53
2018-06-04T20:12:29.407Z,49.64
2018-06-04T20:17:22.242Z,50.30
2018-06-04T20:22:15.087Z,50.68
2018-06-04T20:27:07.906Z,50.96
2018-06-04T20:32:00.821Z,51.69
2018-06-04T20:36:53.756Z,51.69
2018-06-04T20:41:46.743Z,52.45
2018-06-04T20:46:39.710Z,52.38
2018-06-04T20:51:32.751Z,52.54
2018-06-04T20:56:25.740Z,52.87
2018-06-04T21:01:18.635Z,53.59
2018-06-04T21:06:11.627Z,53.17
2018-06-04T21:11:04.601Z,53.40
2018-06-04T21:15:57.486Z,54.48
2018-06-04T21:20:50.484Z,54.03
2018-06-04T21:25:43.334Z,54.42
2018-06-04T21:30:36.232Z,55.26
2018-06-04T21:35:29.067Z,55.06
2018-06-04T21:40:21.910Z,54.78
2018-06-04T21:45:14.789Z,54.43
2018-06-04T21:50:07.671Z,54.43
2018-06-04T21:55:00.554Z,54.46
2018-06-04T21:59:53.534Z,55.13
2018-06-04T22:04:46.500Z,55.00
2018-06-04T22:09:39.427Z,55.72
2018-06-04T22:14:32.341Z,55.77
2018-06-04T22:19:25.191Z,55.34
2018-06-04T22:24:18.209Z,56.16
2018-06-04T22:29:13.238Z,56.32
2018-06-04T22:34:06.152Z,56.41
2018-06-04T22:38:59.162Z,56.61
2018-06-04T22:43:52.112Z,56.84
2018-06-04T22:48:45.180Z,58.11
2018-06-04T22:53:38.176Z,57.72
2018-06-04T22:58:31.046Z,58.46
2018-06-04T23:03:23.944Z,58.58
2018-06-04T23:08:16.836Z,58.27
2018-06-04T23:13:09.790Z,58.95
2018-06-04T23:18:02.675Z,58.76
2018-06-04T23:22:55.592Z,59.50
2018-06-04T23:27:48.516Z,59.29
2018-06-04T23:32:41.466Z,59.36
2018-06-04T23:37:34.445Z,59.50
2018-06-04T23:42:27.366Z,59.50
2018-06-04T23:47:20.405Z,60.21
2018-06-04T23:52:13.287Z,59.42
2018-06-04T23:57:06.206Z,59.63
